sensor_id;sensor_type;location;lat;lon;timestamp;P1;durP1;ratioP1;P2;durP2;ratioP2
31464;SDS011;18089;47.428;15.006;2022-10-16T00:00:50;24.10;;;15.77;;
31464;SDS011;18089;47.428;15.006;2022-10-16T00:03:22;23.33;;;15.95;;
31464;SDS011;18089;47.428;15.006;2022-10-16T00:05:58;22.10;;;15.10;;
31464;SDS011;18089;47.428;15.006;2022-10-16T00:08:30;23.17;;;16.65;;
31464;SDS011;18089;47.428;15.006;2022-10-16T00:11:03;23.00;;;15.10;;
31464;SDS011;18089;47.428;15.006;2022-10-16T00:13:39;24.85;;;15.43;;
31464;SDS011;18089;47.428;15.006;2022-10-16T00:16:12;19.75;;;14.40;;
31464;SDS011;18089;47.428;15.006;2022-10-16T00:18:44;21.15;;;15.00;;
31464;SDS011;18089;47.428;15.006;2022-10-16T00:21:17;20.50;;;15.00;;
31464;SDS011;18089;47.428;15.006;2022-10-16T00:23:53;23.13;;;15.15;;
31464;SDS011;18089;47.428;15.006;2022-10-16T00:26:26;21.50;;;14.70;;
31464;SDS011;18089;47.428;15.006;2022-10-16T00:29:01;20.40;;;14.43;;
31464;SDS011;18089;47.428;15.006;2022-10-16T00:31:33;21.25;;;15.48;;
31464;SDS011;18089;47.428;15.006;2022-10-16T00:34:06;18.40;;;14.15;;
31464;SDS011;18089;47.428;15.006;2022-10-16T00:36:38;26.05;;;15.35;;
31464;SDS011;18089;47.428;15.006;2022-10-16T00:39:10;23.33;;;15.35;;
31464;SDS011;18089;47.428;15.006;2022-10-16T00:41:42;23.45;;;15.55;;
31464;SDS011;18089;47.428;15.006;2022-10-16T00:47:17;23.75;;;15.40;;
31464;SDS011;18089;47.428;15.006;2022-10-16T00:49:53;22.45;;;16.02;;
31464;SDS011;18089;47.428;15.006;2022-10-16T00:52:29;25.27;;;15.35;;
31464;SDS011;18089;47.428;15.006;2022-10-16T00:55:02;23.00;;;14.77;;
31464;SDS011;18089;47.428;15.006;2022-10-16T00:57:35;20.33;;;14.85;;
31464;SDS011;18089;47.428;15.006;2022-10-16T01:00:14;21.30;;;14.90;;
31464;SDS011;18089;47.428;15.006;2022-10-16T01:02:51;20.60;;;14.50;;
31464;SDS011;18089;47.428;15.006;2022-10-16T01:05:27;20.83;;;13.00;;
31464;SDS011;18089;47.428;15.006;2022-10-16T01:08:04;21.60;;;14.45;;
31464;SDS011;18089;47.428;15.006;2022-10-16T01:10:40;19.65;;;14.00;;
31464;SDS011;18089;47.428;15.006;2022-10-16T01:13:18;18.77;;;13.00;;
31464;SDS011;18089;47.428;15.006;2022-10-16T01:15:55;19.25;;;13.18;;
31464;SDS011;18089;47.428;15.006;2022-10-16T01:18:32;17.00;;;13.20;;
31464;SDS011;18089;47.428;15.006;2022-10-16T01:21:09;17.95;;;12.95;;
31464;SDS011;18089;47.428;15.006;2022-10-16T01:23:45;17.35;;;12.25;;
31464;SDS011;18089;47.428;15.006;2022-10-16T01:26:31;17.98;;;12.43;;
31464;SDS011;18089;47.428;15.006;2022-10-16T01:29:12;16.08;;;12.43;;
31464;SDS011;18089;47.428;15.006;2022-10-16T01:31:48;18.30;;;12.70;;
31464;SDS011;18089;47.428;15.006;2022-10-16T01:34:28;15.68;;;12.25;;
31464;SDS011;18089;47.428;15.006;2022-10-16T01:37:05;15.00;;;11.95;;
31464;SDS011;18089;47.428;15.006;2022-10-16T01:39:41;17.10;;;12.15;;
31464;SDS011;18089;47.428;15.006;2022-10-16T01:42:16;17.98;;;12.35;;
31464;SDS011;18089;47.428;15.006;2022-10-16T01:44:51;19.10;;;12.85;;
31464;SDS011;18089;47.428;15.006;2022-10-16T01:47:24;19.25;;;12.68;;
31464;SDS011;18089;47.428;15.006;2022-10-16T01:49:57;20.60;;;12.77;;
31464;SDS011;18089;47.428;15.006;2022-10-16T01:52:30;18.58;;;12.23;;
31464;SDS011;18089;47.428;15.006;2022-10-16T01:55:04;17.90;;;12.88;;
31464;SDS011;18089;47.428;15.006;2022-10-16T01:57:38;19.02;;;12.85;;
31464;SDS011;18089;47.428;15.006;2022-10-16T02:00:14;19.33;;;13.20;;
31464;SDS011;18089;47.428;15.006;2022-10-16T02:02:49;21.25;;;12.70;;
31464;SDS011;18089;47.428;15.006;2022-10-16T02:05:23;21.25;;;12.93;;
31464;SDS011;18089;47.428;15.006;2022-10-16T02:07:58;20.15;;;12.75;;
31464;SDS011;18089;47.428;15.006;2022-10-16T02:10:30;19.85;;;11.65;;
31464;SDS011;18089;47.428;15.006;2022-10-16T02:13:03;15.95;;;11.90;;
31464;SDS011;18089;47.428;15.006;2022-10-16T02:15:39;15.80;;;12.00;;
31464;SDS011;18089;47.428;15.006;2022-10-16T02:18:11;22.10;;;12.27;;
31464;SDS011;18089;47.428;15.006;2022-10-16T02:20:44;16.35;;;12.38;;
31464;SDS011;18089;47.428;15.006;2022-10-16T02:23:21;21.00;;;12.60;;
31464;SDS011;18089;47.428;15.006;2022-10-16T02:25:58;17.50;;;12.80;;
31464;SDS011;18089;47.428;15.006;2022-10-16T02:28:31;21.10;;;13.85;;
31464;SDS011;18089;47.428;15.006;2022-10-16T02:31:11;19.38;;;12.73;;
31464;SDS011;18089;47.428;15.006;2022-10-16T02:33:44;18.27;;;13.32;;
31464;SDS011;18089;47.428;15.006;2022-10-16T02:36:17;17.02;;;12.38;;
31464;SDS011;18089;47.428;15.006;2022-10-16T02:38:49;18.73;;;12.52;;
31464;SDS011;18089;47.428;15.006;2022-10-16T02:41:22;17.90;;;12.52;;
31464;SDS011;18089;47.428;15.006;2022-10-16T02:43:55;18.25;;;13.32;;
31464;SDS011;18089;47.428;15.006;2022-10-16T02:46:28;20.10;;;14.07;;
31464;SDS011;18089;47.428;15.006;2022-10-16T02:49:00;21.20;;;13.23;;
31464;SDS011;18089;47.428;15.006;2022-10-16T02:51:32;20.23;;;13.13;;
31464;SDS011;18089;47.428;15.006;2022-10-16T02:54:04;16.77;;;12.70;;
31464;SDS011;18089;47.428;15.006;2022-10-16T02:56:36;22.73;;;13.02;;
31464;SDS011;18089;47.428;15.006;2022-10-16T02:59:08;16.42;;;12.88;;
31464;SDS011;18089;47.428;15.006;2022-10-16T03:01:42;17.83;;;13.10;;
31464;SDS011;18089;47.428;15.006;2022-10-16T03:04:14;21.85;;;14.07;;
31464;SDS011;18089;47.428;15.006;2022-10-16T03:06:46;19.38;;;13.60;;
31464;SDS011;18089;47.428;15.006;2022-10-16T03:09:18;21.88;;;13.90;;
31464;SDS011;18089;47.428;15.006;2022-10-16T03:11:50;17.83;;;13.80;;
31464;SDS011;18089;47.428;15.006;2022-10-16T03:14:22;16.33;;;13.07;;
31464;SDS011;18089;47.428;15.006;2022-10-16T03:16:55;19.02;;;13.02;;
31464;SDS011;18089;47.428;15.006;2022-10-16T03:19:27;19.08;;;13.43;;
31464;SDS011;18089;47.428;15.006;2022-10-16T03:21:59;19.92;;;13.50;;
31464;SDS011;18089;47.428;15.006;2022-10-16T03:24:31;19.58;;;13.55;;
31464;SDS011;18089;47.428;15.006;2022-10-16T03:27:03;17.60;;;13.13;;
31464;SDS011;18089;47.428;15.006;2022-10-16T03:29:35;20.08;;;12.65;;
31464;SDS011;18089;47.428;15.006;2022-10-16T03:32:09;18.73;;;13.15;;
31464;SDS011;18089;47.428;15.006;2022-10-16T03:34:41;17.65;;;12.45;;
31464;SDS011;18089;47.428;15.006;2022-10-16T03:37:13;17.50;;;12.75;;
31464;SDS011;18089;47.428;15.006;2022-10-16T03:39:45;18.20;;;13.30;;
31464;SDS011;18089;47.428;15.006;2022-10-16T03:42:17;18.90;;;13.20;;
31464;SDS011;18089;47.428;15.006;2022-10-16T03:44:49;20.10;;;13.38;;
31464;SDS011;18089;47.428;15.006;2022-10-16T03:47:22;17.38;;;12.57;;
31464;SDS011;18089;47.428;15.006;2022-10-16T03:49:54;15.93;;;11.95;;
31464;SDS011;18089;47.428;15.006;2022-10-16T03:52:26;15.02;;;12.05;;
31464;SDS011;18089;47.428;15.006;2022-10-16T03:54:58;15.75;;;12.30;;
31464;SDS011;18089;47.428;15.006;2022-10-16T03:57:30;14.63;;;11.77;;
31464;SDS011;18089;47.428;15.006;2022-10-16T04:00:03;15.38;;;11.25;;
31464;SDS011;18089;47.428;15.006;2022-10-16T04:02:37;14.32;;;12.00;;
31464;SDS011;18089;47.428;15.006;2022-10-16T04:05:09;14.75;;;11.77;;
31464;SDS011;18089;47.428;15.006;2022-10-16T04:07:41;19.15;;;13.43;;
31464;SDS011;18089;47.428;15.006;2022-10-16T04:10:13;14.30;;;11.35;;
31464;SDS011;18089;47.428;15.006;2022-10-16T04:12:45;16.40;;;12.45;;
31464;SDS011;18089;47.428;15.006;2022-10-16T04:15:17;13.77;;;11.38;;
31464;SDS011;18089;47.428;15.006;2022-10-16T04:17:51;14.88;;;11.40;;
31464;SDS011;18089;47.428;15.006;2022-10-16T04:20:23;15.20;;;11.90;;
31464;SDS011;18089;47.428;15.006;2022-10-16T04:22:55;13.07;;;10.98;;
31464;SDS011;18089;47.428;15.006;2022-10-16T04:25:27;16.15;;;12.05;;
31464;SDS011;18089;47.428;15.006;2022-10-16T04:27:59;16.27;;;11.85;;
31464;SDS011;18089;47.428;15.006;2022-10-16T04:30:31;13.80;;;11.48;;
31464;SDS011;18089;47.428;15.006;2022-10-16T04:33:05;15.68;;;12.30;;
31464;SDS011;18089;47.428;15.006;2022-10-16T04:35:37;15.18;;;12.05;;
31464;SDS011;18089;47.428;15.006;2022-10-16T04:38:09;15.77;;;12.27;;
31464;SDS011;18089;47.428;15.006;2022-10-16T04:40:41;17.48;;;12.15;;
31464;SDS011;18089;47.428;15.006;2022-10-16T04:43:13;15.35;;;12.00;;
31464;SDS011;18089;47.428;15.006;2022-10-16T04:45:45;24.77;;;14.82;;
31464;SDS011;18089;47.428;15.006;2022-10-16T04:48:18;20.42;;;14.20;;
31464;SDS011;18089;47.428;15.006;2022-10-16T04:50:50;24.20;;;15.43;;
31464;SDS011;18089;47.428;15.006;2022-10-16T04:53:22;20.98;;;14.60;;
31464;SDS011;18089;47.428;15.006;2022-10-16T04:55:55;26.10;;;15.48;;
31464;SDS011;18089;47.428;15.006;2022-10-16T04:58:27;21.27;;;14.60;;
31464;SDS011;18089;47.428;15.006;2022-10-16T05:00:59;23.23;;;13.70;;
31464;SDS011;18089;47.428;15.006;2022-10-16T05:03:32;21.67;;;13.93;;
31464;SDS011;18089;47.428;15.006;2022-10-16T05:06:04;20.42;;;13.95;;
31464;SDS011;18089;47.428;15.006;2022-10-16T05:08:37;25.25;;;14.48;;
31464;SDS011;18089;47.428;15.006;2022-10-16T05:11:08;17.77;;;13.55;;
31464;SDS011;18089;47.428;15.006;2022-10-16T05:13:40;23.92;;;13.75;;
31464;SDS011;18089;47.428;15.006;2022-10-16T05:16:12;22.67;;;14.90;;
31464;SDS011;18089;47.428;15.006;2022-10-16T05:18:46;23.35;;;15.30;;
31464;SDS011;18089;47.428;15.006;2022-10-16T05:21:18;26.05;;;15.95;;
31464;SDS011;18089;47.428;15.006;2022-10-16T05:23:50;24.80;;;16.25;;
31464;SDS011;18089;47.428;15.006;2022-10-16T05:26:22;25.50;;;16.13;;
31464;SDS011;18089;47.428;15.006;2022-10-16T05:28:54;25.98;;;15.68;;
31464;SDS011;18089;47.428;15.006;2022-10-16T05:31:26;23.58;;;15.50;;
31464;SDS011;18089;47.428;15.006;2022-10-16T05:33:59;33.40;;;16.48;;
31464;SDS011;18089;47.428;15.006;2022-10-16T05:36:32;28.38;;;16.00;;
31464;SDS011;18089;47.428;15.006;2022-10-16T05:39:04;25.42;;;15.68;;
31464;SDS011;18089;47.428;15.006;2022-10-16T05:41:36;25.67;;;15.07;;
31464;SDS011;18089;47.428;15.006;2022-10-16T05:44:08;29.75;;;16.27;;
31464;SDS011;18089;47.428;15.006;2022-10-16T05:46:40;22.55;;;14.73;;
31464;SDS011;18089;47.428;15.006;2022-10-16T05:49:14;21.52;;;14.63;;
31464;SDS011;18089;47.428;15.006;2022-10-16T05:51:46;21.25;;;14.27;;
31464;SDS011;18089;47.428;15.006;2022-10-16T05:54:17;22.80;;;14.80;;
31464;SDS011;18089;47.428;15.006;2022-10-16T05:56:50;22.05;;;15.10;;
31464;SDS011;18089;47.428;15.006;2022-10-16T05:59:22;22.23;;;14.82;;
31464;SDS011;18089;47.428;15.006;2022-10-16T06:01:54;23.08;;;14.95;;
31464;SDS011;18089;47.428;15.006;2022-10-16T06:04:29;26.73;;;15.80;;
31464;SDS011;18089;47.428;15.006;2022-10-16T06:07:01;21.52;;;15.13;;
31464;SDS011;18089;47.428;15.006;2022-10-16T06:09:33;22.38;;;14.77;;
31464;SDS011;18089;47.428;15.006;2022-10-16T06:12:05;22.30;;;16.02;;
31464;SDS011;18089;47.428;15.006;2022-10-16T06:14:37;21.10;;;15.93;;
31464;SDS011;18089;47.428;15.006;2022-10-16T06:17:09;21.65;;;14.45;;
31464;SDS011;18089;47.428;15.006;2022-10-16T06:19:42;20.73;;;14.75;;
31464;SDS011;18089;47.428;15.006;2022-10-16T06:22:14;20.42;;;13.68;;
31464;SDS011;18089;47.428;15.006;2022-10-16T06:24:46;22.77;;;14.45;;
31464;SDS011;18089;47.428;15.006;2022-10-16T06:27:19;19.35;;;14.05;;
31464;SDS011;18089;47.428;15.006;2022-10-16T06:29:51;20.98;;;14.55;;
31464;SDS011;18089;47.428;15.006;2022-10-16T06:32:24;22.70;;;14.80;;
31464;SDS011;18089;47.428;15.006;2022-10-16T06:34:57;21.60;;;13.82;;
31464;SDS011;18089;47.428;15.006;2022-10-16T06:37:29;22.38;;;14.68;;
31464;SDS011;18089;47.428;15.006;2022-10-16T06:40:01;24.08;;;15.85;;
31464;SDS011;18089;47.428;15.006;2022-10-16T06:42:34;30.58;;;17.48;;
31464;SDS011;18089;47.428;15.006;2022-10-16T06:45:06;30.80;;;17.70;;
31464;SDS011;18089;47.428;15.006;2022-10-16T06:47:39;32.28;;;19.35;;
31464;SDS011;18089;47.428;15.006;2022-10-16T06:50:12;32.88;;;18.63;;
31464;SDS011;18089;47.428;15.006;2022-10-16T06:52:44;31.48;;;18.83;;
31464;SDS011;18089;47.428;15.006;2022-10-16T06:55:16;32.47;;;19.70;;
31464;SDS011;18089;47.428;15.006;2022-10-16T06:57:48;33.38;;;19.88;;
31464;SDS011;18089;47.428;15.006;2022-10-16T07:00:20;33.25;;;19.75;;
31464;SDS011;18089;47.428;15.006;2022-10-16T07:02:52;31.50;;;19.23;;
31464;SDS011;18089;47.428;15.006;2022-10-16T07:05:26;31.45;;;18.73;;
31464;SDS011;18089;47.428;15.006;2022-10-16T07:07:58;32.88;;;18.77;;
31464;SDS011;18089;47.428;15.006;2022-10-16T07:10:30;34.92;;;19.50;;
31464;SDS011;18089;47.428;15.006;2022-10-16T07:13:02;34.50;;;20.13;;
31464;SDS011;18089;47.428;15.006;2022-10-16T07:15:34;33.05;;;18.63;;
31464;SDS011;18089;47.428;15.006;2022-10-16T07:18:06;29.02;;;18.90;;
31464;SDS011;18089;47.428;15.006;2022-10-16T07:20:39;30.83;;;18.23;;
31464;SDS011;18089;47.428;15.006;2022-10-16T07:23:11;31.15;;;18.73;;
31464;SDS011;18089;47.428;15.006;2022-10-16T07:25:43;29.92;;;19.45;;
31464;SDS011;18089;47.428;15.006;2022-10-16T07:28:15;28.55;;;18.13;;
31464;SDS011;18089;47.428;15.006;2022-10-16T07:30:47;30.73;;;19.02;;
31464;SDS011;18089;47.428;15.006;2022-10-16T07:33:19;31.33;;;18.80;;
31464;SDS011;18089;47.428;15.006;2022-10-16T07:35:54;27.75;;;17.98;;
31464;SDS011;18089;47.428;15.006;2022-10-16T07:38:26;32.95;;;18.65;;
31464;SDS011;18089;47.428;15.006;2022-10-16T07:40:58;30.83;;;19.25;;
31464;SDS011;18089;47.428;15.006;2022-10-16T07:43:31;29.25;;;18.00;;
31464;SDS011;18089;47.428;15.006;2022-10-16T07:46:04;32.38;;;18.63;;
31464;SDS011;18089;47.428;15.006;2022-10-16T07:48:36;30.55;;;18.33;;
31464;SDS011;18089;47.428;15.006;2022-10-16T07:51:09;31.55;;;18.52;;
31464;SDS011;18089;47.428;15.006;2022-10-16T07:53:41;31.40;;;19.60;;
31464;SDS011;18089;47.428;15.006;2022-10-16T07:56:14;29.98;;;18.55;;
31464;SDS011;18089;47.428;15.006;2022-10-16T07:58:46;37.50;;;18.90;;
31464;SDS011;18089;47.428;15.006;2022-10-16T08:01:20;34.10;;;19.50;;
31464;SDS011;18089;47.428;15.006;2022-10-16T08:03:52;28.98;;;19.45;;
31464;SDS011;18089;47.428;15.006;2022-10-16T08:06:25;33.15;;;19.02;;
31464;SDS011;18089;47.428;15.006;2022-10-16T08:08:57;30.77;;;19.05;;
31464;SDS011;18089;47.428;15.006;2022-10-16T08:11:30;31.35;;;19.98;;
31464;SDS011;18089;47.428;15.006;2022-10-16T08:14:02;30.17;;;18.20;;
31464;SDS011;18089;47.428;15.006;2022-10-16T08:16:34;29.90;;;18.95;;
31464;SDS011;18089;47.428;15.006;2022-10-16T08:19:06;32.13;;;20.02;;
31464;SDS011;18089;47.428;15.006;2022-10-16T08:21:39;33.35;;;20.42;;
31464;SDS011;18089;47.428;15.006;2022-10-16T08:24:11;35.33;;;20.75;;
31464;SDS011;18089;47.428;15.006;2022-10-16T08:26:43;36.42;;;20.27;;
31464;SDS011;18089;47.428;15.006;2022-10-16T08:29:15;35.65;;;21.05;;
31464;SDS011;18089;47.428;15.006;2022-10-16T08:31:47;33.22;;;20.83;;
31464;SDS011;18089;47.428;15.006;2022-10-16T08:34:19;34.60;;;20.67;;
31464;SDS011;18089;47.428;15.006;2022-10-16T08:36:54;32.70;;;20.30;;
31464;SDS011;18089;47.428;15.006;2022-10-16T08:39:26;35.85;;;21.38;;
31464;SDS011;18089;47.428;15.006;2022-10-16T08:44:58;35.83;;;22.00;;
31464;SDS011;18089;47.428;15.006;2022-10-16T08:47:51;38.65;;;21.50;;
31464;SDS011;18089;47.428;15.006;2022-10-16T08:50:29;40.42;;;24.38;;
31464;SDS011;18089;47.428;15.006;2022-10-16T08:53:04;42.03;;;24.17;;
31464;SDS011;18089;47.428;15.006;2022-10-16T08:55:38;42.70;;;26.00;;
31464;SDS011;18089;47.428;15.006;2022-10-16T08:58:13;40.15;;;24.48;;
31464;SDS011;18089;47.428;15.006;2022-10-16T09:00:46;35.78;;;23.10;;
31464;SDS011;18089;47.428;15.006;2022-10-16T09:03:23;41.50;;;25.10;;
31464;SDS011;18089;47.428;15.006;2022-10-16T09:06:06;37.17;;;22.58;;
31464;SDS011;18089;47.428;15.006;2022-10-16T09:08:46;35.95;;;23.75;;
31464;SDS011;18089;47.428;15.006;2022-10-16T09:11:25;36.72;;;23.45;;
31464;SDS011;18089;47.428;15.006;2022-10-16T09:14:07;39.42;;;23.90;;
31464;SDS011;18089;47.428;15.006;2022-10-16T09:16:48;44.35;;;24.95;;
31464;SDS011;18089;47.428;15.006;2022-10-16T09:19:27;38.28;;;24.67;;
31464;SDS011;18089;47.428;15.006;2022-10-16T09:22:09;44.17;;;27.33;;
31464;SDS011;18089;47.428;15.006;2022-10-16T09:24:45;42.70;;;24.27;;
31464;SDS011;18089;47.428;15.006;2022-10-16T09:27:18;43.17;;;25.98;;
31464;SDS011;18089;47.428;15.006;2022-10-16T09:29:50;42.88;;;25.52;;
31464;SDS011;18089;47.428;15.006;2022-10-16T09:32:22;42.20;;;27.08;;
31464;SDS011;18089;47.428;15.006;2022-10-16T09:34:54;37.25;;;24.65;;
31464;SDS011;18089;47.428;15.006;2022-10-16T09:37:27;38.50;;;23.92;;
31464;SDS011;18089;47.428;15.006;2022-10-16T09:40:01;42.28;;;25.25;;
31464;SDS011;18089;47.428;15.006;2022-10-16T09:42:34;42.25;;;26.85;;
31464;SDS011;18089;47.428;15.006;2022-10-16T09:45:19;41.53;;;25.73;;
31464;SDS011;18089;47.428;15.006;2022-10-16T09:47:52;42.60;;;25.38;;
31464;SDS011;18089;47.428;15.006;2022-10-16T09:50:25;42.65;;;26.33;;
31464;SDS011;18089;47.428;15.006;2022-10-16T09:53:05;39.38;;;23.95;;
31464;SDS011;18089;47.428;15.006;2022-10-16T09:55:50;40.10;;;24.67;;
31464;SDS011;18089;47.428;15.006;2022-10-16T09:58:23;37.13;;;24.45;;
31464;SDS011;18089;47.428;15.006;2022-10-16T10:00:55;34.38;;;22.95;;
31464;SDS011;18089;47.428;15.006;2022-10-16T10:03:34;33.33;;;22.63;;
31464;SDS011;18089;47.428;15.006;2022-10-16T10:06:16;32.83;;;22.27;;
31464;SDS011;18089;47.428;15.006;2022-10-16T10:08:57;34.63;;;23.00;;
31464;SDS011;18089;47.428;15.006;2022-10-16T10:11:53;35.20;;;23.08;;
31464;SDS011;18089;47.428;15.006;2022-10-16T10:14:30;34.70;;;22.83;;
31464;SDS011;18089;47.428;15.006;2022-10-16T10:17:13;32.58;;;22.50;;
31464;SDS011;18089;47.428;15.006;2022-10-16T10:19:48;33.60;;;23.15;;
31464;SDS011;18089;47.428;15.006;2022-10-16T10:22:24;32.75;;;22.83;;
31464;SDS011;18089;47.428;15.006;2022-10-16T10:25:07;31.95;;;22.42;;
31464;SDS011;18089;47.428;15.006;2022-10-16T10:27:51;30.00;;;21.77;;
31464;SDS011;18089;47.428;15.006;2022-10-16T10:30:34;31.75;;;21.27;;
31464;SDS011;18089;47.428;15.006;2022-10-16T10:33:12;31.85;;;21.38;;
31464;SDS011;18089;47.428;15.006;2022-10-16T10:35:53;29.15;;;20.15;;
31464;SDS011;18089;47.428;15.006;2022-10-16T10:38:34;27.50;;;20.80;;
31464;SDS011;18089;47.428;15.006;2022-10-16T10:41:18;29.77;;;21.15;;
31464;SDS011;18089;47.428;15.006;2022-10-16T10:44:26;33.72;;;20.77;;
31464;SDS011;18089;47.428;15.006;2022-10-16T10:47:05;27.52;;;20.38;;
31464;SDS011;18089;47.428;15.006;2022-10-16T10:49:49;24.95;;;18.60;;
31464;SDS011;18089;47.428;15.006;2022-10-16T10:52:36;28.20;;;18.85;;
31464;SDS011;18089;47.428;15.006;2022-10-16T10:55:15;26.75;;;18.00;;
31464;SDS011;18089;47.428;15.006;2022-10-16T11:00:51;22.88;;;17.88;;
31464;SDS011;18089;47.428;15.006;2022-10-16T11:03:31;21.52;;;16.77;;
31464;SDS011;18089;47.428;15.006;2022-10-16T11:06:26;24.20;;;17.40;;
31464;SDS011;18089;47.428;15.006;2022-10-16T11:09:02;23.55;;;17.60;;
31464;SDS011;18089;47.428;15.006;2022-10-16T11:11:42;28.70;;;19.17;;
31464;SDS011;18089;47.428;15.006;2022-10-16T11:14:16;25.70;;;17.38;;
31464;SDS011;18089;47.428;15.006;2022-10-16T11:16:53;20.95;;;15.80;;
31464;SDS011;18089;47.428;15.006;2022-10-16T11:19:31;22.23;;;16.10;;
31464;SDS011;18089;47.428;15.006;2022-10-16T11:22:09;23.90;;;17.08;;
31464;SDS011;18089;47.428;15.006;2022-10-16T11:24:45;22.05;;;16.50;;
31464;SDS011;18089;47.428;15.006;2022-10-16T11:27:22;19.80;;;15.27;;
31464;SDS011;18089;47.428;15.006;2022-10-16T11:30:02;18.33;;;14.52;;
31464;SDS011;18089;47.428;15.006;2022-10-16T11:32:40;19.77;;;14.02;;
31464;SDS011;18089;47.428;15.006;2022-10-16T11:35:22;19.15;;;13.75;;
31464;SDS011;18089;47.428;15.006;2022-10-16T11:37:56;19.80;;;13.40;;
31464;SDS011;18089;47.428;15.006;2022-10-16T11:40:29;18.80;;;13.95;;
31464;SDS011;18089;47.428;15.006;2022-10-16T11:43:04;19.48;;;13.57;;
31464;SDS011;18089;47.428;15.006;2022-10-16T11:45:42;19.60;;;13.38;;
31464;SDS011;18089;47.428;15.006;2022-10-16T11:48:20;17.85;;;13.93;;
31464;SDS011;18089;47.428;15.006;2022-10-16T11:50:56;17.45;;;14.07;;
31464;SDS011;18089;47.428;15.006;2022-10-16T11:53:34;28.33;;;22.05;;
31464;SDS011;18089;47.428;15.006;2022-10-16T11:56:13;14.23;;;11.93;;
31464;SDS011;18089;47.428;15.006;2022-10-16T11:58:51;14.45;;;11.88;;
31464;SDS011;18089;47.428;15.006;2022-10-16T12:01:28;14.50;;;12.27;;
31464;SDS011;18089;47.428;15.006;2022-10-16T12:04:14;15.25;;;12.50;;
31464;SDS011;18089;47.428;15.006;2022-10-16T12:06:51;18.00;;;12.75;;
31464;SDS011;18089;47.428;15.006;2022-10-16T12:09:26;13.27;;;11.48;;
31464;SDS011;18089;47.428;15.006;2022-10-16T12:12:00;14.13;;;11.82;;
31464;SDS011;18089;47.428;15.006;2022-10-16T12:14:34;16.20;;;10.95;;
31464;SDS011;18089;47.428;15.006;2022-10-16T12:20:19;13.93;;;11.13;;
31464;SDS011;18089;47.428;15.006;2022-10-16T12:22:54;11.95;;;10.43;;
31464;SDS011;18089;47.428;15.006;2022-10-16T12:25:28;13.93;;;9.32;;
31464;SDS011;18089;47.428;15.006;2022-10-16T12:28:02;12.85;;;10.18;;
31464;SDS011;18089;47.428;15.006;2022-10-16T12:30:35;13.43;;;10.52;;
31464;SDS011;18089;47.428;15.006;2022-10-16T12:33:16;14.13;;;9.88;;
31464;SDS011;18089;47.428;15.006;2022-10-16T12:35:53;12.90;;;10.15;;
31464;SDS011;18089;47.428;15.006;2022-10-16T12:38:26;13.88;;;10.45;;
31464;SDS011;18089;47.428;15.006;2022-10-16T12:41:01;11.88;;;10.52;;
31464;SDS011;18089;47.428;15.006;2022-10-16T12:43:38;13.60;;;10.00;;
31464;SDS011;18089;47.428;15.006;2022-10-16T12:46:22;13.20;;;10.07;;
31464;SDS011;18089;47.428;15.006;2022-10-16T12:49:04;14.25;;;11.73;;
31464;SDS011;18089;47.428;15.006;2022-10-16T12:51:39;14.45;;;10.85;;
31464;SDS011;18089;47.428;15.006;2022-10-16T12:54:12;13.75;;;11.43;;
31464;SDS011;18089;47.428;15.006;2022-10-16T12:56:49;14.35;;;11.02;;
31464;SDS011;18089;47.428;15.006;2022-10-16T12:59:31;12.40;;;10.55;;
31464;SDS011;18089;47.428;15.006;2022-10-16T13:05:21;12.93;;;10.63;;
31464;SDS011;18089;47.428;15.006;2022-10-16T13:08:02;12.98;;;10.05;;
31464;SDS011;18089;47.428;15.006;2022-10-16T13:10:42;13.65;;;9.95;;
31464;SDS011;18089;47.428;15.006;2022-10-16T13:13:29;12.48;;;10.23;;
31464;SDS011;18089;47.428;15.006;2022-10-16T13:16:21;11.43;;;9.25;;
31464;SDS011;18089;47.428;15.006;2022-10-16T13:18:59;11.60;;;10.18;;
31464;SDS011;18089;47.428;15.006;2022-10-16T13:21:39;13.95;;;10.27;;
31464;SDS011;18089;47.428;15.006;2022-10-16T13:24:22;12.75;;;9.50;;
31464;SDS011;18089;47.428;15.006;2022-10-16T13:27:01;10.60;;;9.50;;
31464;SDS011;18089;47.428;15.006;2022-10-16T13:29:37;10.68;;;8.90;;
31464;SDS011;18089;47.428;15.006;2022-10-16T13:32:11;11.00;;;9.90;;
31464;SDS011;18089;47.428;15.006;2022-10-16T13:34:47;12.32;;;10.25;;
31464;SDS011;18089;47.428;15.006;2022-10-16T13:37:20;12.45;;;10.20;;
31464;SDS011;18089;47.428;15.006;2022-10-16T13:40:04;9.30;;;8.30;;
31464;SDS011;18089;47.428;15.006;2022-10-16T13:42:43;13.20;;;8.68;;
31464;SDS011;18089;47.428;15.006;2022-10-16T13:45:18;10.35;;;8.98;;
31464;SDS011;18089;47.428;15.006;2022-10-16T13:48:00;9.40;;;8.48;;
31464;SDS011;18089;47.428;15.006;2022-10-16T13:50:33;11.95;;;8.98;;
31464;SDS011;18089;47.428;15.006;2022-10-16T13:53:05;11.82;;;8.57;;
31464;SDS011;18089;47.428;15.006;2022-10-16T13:55:39;10.45;;;8.95;;
31464;SDS011;18089;47.428;15.006;2022-10-16T13:58:12;9.98;;;8.60;;
31464;SDS011;18089;47.428;15.006;2022-10-16T14:00:53;12.38;;;9.75;;
31464;SDS011;18089;47.428;15.006;2022-10-16T14:03:26;12.68;;;10.10;;
31464;SDS011;18089;47.428;15.006;2022-10-16T14:06:00;12.15;;;9.90;;
31464;SDS011;18089;47.428;15.006;2022-10-16T14:08:32;12.90;;;9.95;;
31464;SDS011;18089;47.428;15.006;2022-10-16T14:11:06;11.18;;;9.60;;
31464;SDS011;18089;47.428;15.006;2022-10-16T14:13:39;12.20;;;9.55;;
31464;SDS011;18089;47.428;15.006;2022-10-16T14:16:16;15.00;;;9.73;;
31464;SDS011;18089;47.428;15.006;2022-10-16T14:18:53;14.90;;;10.27;;
31464;SDS011;18089;47.428;15.006;2022-10-16T14:21:27;14.55;;;9.65;;
31464;SDS011;18089;47.428;15.006;2022-10-16T14:24:10;10.80;;;8.77;;
31464;SDS011;18089;47.428;15.006;2022-10-16T14:26:44;10.88;;;8.48;;
31464;SDS011;18089;47.428;15.006;2022-10-16T14:29:18;10.13;;;8.38;;
31464;SDS011;18089;47.428;15.006;2022-10-16T14:31:56;8.82;;;7.65;;
31464;SDS011;18089;47.428;15.006;2022-10-16T14:34:30;8.63;;;7.40;;
31464;SDS011;18089;47.428;15.006;2022-10-16T14:37:06;8.57;;;7.43;;
31464;SDS011;18089;47.428;15.006;2022-10-16T14:39:48;9.18;;;7.00;;
31464;SDS011;18089;47.428;15.006;2022-10-16T14:42:22;7.88;;;6.85;;
31464;SDS011;18089;47.428;15.006;2022-10-16T14:44:56;9.88;;;7.15;;
31464;SDS011;18089;47.428;15.006;2022-10-16T14:47:28;8.35;;;6.95;;
31464;SDS011;18089;47.428;15.006;2022-10-16T14:50:00;9.27;;;7.13;;
31464;SDS011;18089;47.428;15.006;2022-10-16T14:52:32;8.23;;;7.35;;
31464;SDS011;18089;47.428;15.006;2022-10-16T14:55:04;8.30;;;6.95;;
31464;SDS011;18089;47.428;15.006;2022-10-16T14:57:40;13.55;;;7.22;;
31464;SDS011;18089;47.428;15.006;2022-10-16T15:00:15;8.50;;;6.75;;
31464;SDS011;18089;47.428;15.006;2022-10-16T15:02:48;7.68;;;6.82;;
31464;SDS011;18089;47.428;15.006;2022-10-16T15:05:21;9.57;;;6.72;;
31464;SDS011;18089;47.428;15.006;2022-10-16T15:07:55;7.78;;;6.30;;
31464;SDS011;18089;47.428;15.006;2022-10-16T15:10:27;9.73;;;6.90;;